Time;durP1;ratioP1;P1;durP2;ratioP2;P2;SDS_P1;SDS_P2;PMS_P1;PMS_P2;Temp;Humidity;BMP_temperature;BMP_pressure;BME280_temperature;BME280_humidity;BME280_pressure;Samples;Min_cycle;Max_cycle;Signal;HPM_P1;HPM_P2
2022/03/25 00:01:08;;;;;;;79.70;53.92;;;4.20;99.90;;;;;;4935015;29;20405;-85
2022/03/25 00:03:34;;;;;;;76.75;55.08;;;4.10;99.90;;;;;;4950976;29;20457;-86
2022/03/25 00:05:59;;;;;;;80.90;55.67;;;4.00;99.90;;;;;;4940487;28;20485;-86
2022/03/25 00:08:26;;;;;;;75.95;53.60;;;4.00;99.90;;;;;;4952368;28;20051;-85
2022/03/25 00:10:51;;;;;;;81.10;54.65;;;3.90;99.90;;;;;;4951419;29;20044;-86
2022/03/25 00:13:17;;;;;;;80.07;55.55;;;3.90;99.90;;;;;;4934633;29;20090;-85
2022/03/25 00:15:43;;;;;;;87.85;58.63;;;3.80;99.90;;;;;;4937572;29;20083;-85
2022/03/25 00:18:09;;;;;;;90.35;60.35;;;3.70;99.90;;;;;;4948630;29;20086;-86
2022/03/25 00:20:34;;;;;;;87.55;58.78;;;3.70;99.90;;;;;;4940275;28;20043;-85
2022/03/25 00:23:00;;;;;;;86.38;57.78;;;3.70;99.90;;;;;;4934139;29;20166;-86
2022/03/25 00:25:25;;;;;;;87.20;57.45;;;3.60;99.90;;;;;;4945438;29;20040;-85
2022/03/25 00:27:51;;;;;;;79.70;55.35;;;3.60;99.90;;;;;;4944174;29;20089;-85
2022/03/25 00:30:17;;;;;;;78.05;55.38;;;3.50;99.90;;;;;;4954899;28;20036;-86
2022/03/25 00:32:42;;;;;;;83.05;57.20;;;3.50;99.90;;;;;;4948754;29;20051;-85
2022/03/25 00:35:08;;;;;;;74.10;53.25;;;3.40;99.90;;;;;;4947470;29;20035;-85
2022/03/25 00:37:34;;;;;;;76.60;53.42;;;3.40;99.90;;;;;;4943433;28;20035;-85
2022/03/25 00:39:59;;;;;;;75.07;54.75;;;3.40;99.90;;;;;;4935197;29;20047;-85
2022/03/25 00:42:25;;;;;;;76.30;53.85;;;3.40;99.90;;;;;;4950567;29;20043;-85
2022/03/25 00:44:50;;;;;;;72.32;53.42;;;3.40;99.90;;;;;;4950556;29;20043;-85
2022/03/25 00:47:16;;;;;;;73.43;54.38;;;3.40;99.90;;;;;;4926072;29;20039;-85
2022/03/25 00:49:42;;;;;;;74.20;54.63;;;3.40;99.90;;;;;;4939223;29;20067;-87
2022/03/25 00:52:08;;;;;;;74.97;54.40;;;3.30;99.90;;;;;;4941417;29;20054;-85
2022/03/25 00:54:34;;;;;;;74.25;53.28;;;3.30;99.90;;;;;;4935067;29;20501;-85
2022/03/25 00:56:59;;;;;;;72.55;53.38;;;3.20;99.90;;;;;;4939777;29;20461;-85
2022/03/25 00:59:25;;;;;;;71.47;52.75;;;3.20;99.90;;;;;;4952552;28;20051;-85
2022/03/25 01:01:50;;;;;;;78.75;53.30;;;3.20;99.90;;;;;;4949297;29;20650;-86
2022/03/25 01:04:16;;;;;;;71.32;52.00;;;3.20;99.90;;;;;;4949303;29;20036;-85
2022/03/25 01:06:43;;;;;;;73.50;52.97;;;3.20;99.90;;;;;;4935597;29;20512;-86
2022/03/25 01:09:09;;;;;;;71.05;50.30;;;3.20;99.90;;;;;;4949621;29;20043;-86
2022/03/25 01:11:35;;;;;;;79.72;54.22;;;3.10;99.90;;;;;;4950466;29;20118;-86
2022/03/25 01:14:02;;;;;;;76.32;52.90;;;3.10;99.90;;;;;;4934650;29;20512;-86
2022/03/25 01:16:27;;;;;;;76.43;54.17;;;3.20;99.90;;;;;;4934832;29;20055;-85
2022/03/25 01:18:53;;;;;;;80.72;54.67;;;3.10;99.90;;;;;;4950255;29;20516;-86
2022/03/25 01:21:19;;;;;;;76.20;53.47;;;3.20;99.90;;;;;;4946186;29;20624;-86
2022/03/25 01:23:45;;;;;;;74.85;52.25;;;3.10;99.90;;;;;;4941753;29;20067;-85
2022/03/25 01:26:11;;;;;;;77.60;53.35;;;3.10;99.90;;;;;;4951920;29;20050;-85
2022/03/25 01:28:37;;;;;;;78.78;55.00;;;3.10;99.90;;;;;;4982613;28;20034;-85
2022/03/25 01:31:04;;;;;;;76.43;53.17;;;3.10;99.90;;;;;;4986308;28;20646;-85
2022/03/25 01:33:30;;;;;;;77.25;52.67;;;3.00;99.90;;;;;;4953251;29;20054;-85
2022/03/25 01:35:57;;;;;;;74.45;51.60;;;3.00;99.90;;;;;;4982714;28;20401;-86
2022/03/25 01:38:25;;;;;;;70.68;49.50;;;2.90;99.90;;;;;;4950484;29;20134;-86
2022/03/25 01:40:51;;;;;;;67.88;47.40;;;3.00;99.90;;;;;;4950813;29;20043;-85
2022/03/25 01:43:17;;;;;;;66.95;49.33;;;2.80;99.90;;;;;;4946195;28;20060;-86
2022/03/25 01:45:43;;;;;;;67.07;48.42;;;2.80;99.90;;;;;;4952519;29;20155;-85
2022/03/25 01:48:11;;;;;;;63.78;47.50;;;2.80;99.90;;;;;;4931184;29;20168;-85
2022/03/25 01:50:43;;;;;;;67.53;48.20;;;2.70;99.90;;;;;;4934676;29;20036;-85
2022/03/25 01:53:29;;;;;;;70.23;48.60;;;2.60;99.90;;;;;;4918615;29;20075;-85
2022/03/25 01:55:57;;;;;;;62.25;45.45;;;2.60;99.90;;;;;;4945864;29;20533;-85
2022/03/25 01:58:24;;;;;;;60.38;43.88;;;2.60;99.90;;;;;;4970099;28;20048;-85
2022/03/25 02:00:50;;;;;;;63.70;45.83;;;2.50;99.90;;;;;;4931908;29;20051;-85
2022/03/25 02:03:16;;;;;;;63.90;46.13;;;2.50;99.90;;;;;;4969729;28;20053;-85
2022/03/25 02:05:46;;;;;;;63.53;47.03;;;2.50;99.90;;;;;;4969175;28;20172;-85
2022/03/25 02:08:13;;;;;;;70.45;49.08;;;2.50;99.90;;;;;;4937386;29;20122;-85
2022/03/25 02:10:39;;;;;;;74.68;50.17;;;2.40;99.90;;;;;;4937458;29;20043;-85
2022/03/25 02:13:06;;;;;;;66.28;45.90;;;2.50;99.90;;;;;;4953346;29;20051;-85
2022/03/25 02:15:34;;;;;;;59.38;43.17;;;2.50;99.90;;;;;;4949818;29;20198;-85
2022/03/25 02:18:05;;;;;;;63.60;44.95;;;2.40;99.90;;;;;;4953401;29;20081;-85
2022/03/25 02:20:32;;;;;;;60.42;42.38;;;2.40;99.90;;;;;;4952816;29;20082;-85
2022/03/25 02:22:58;;;;;;;59.67;42.92;;;2.30;99.90;;;;;;4967131;28;20051;-86
2022/03/25 02:25:26;;;;;;;56.38;40.22;;;2.30;99.90;;;;;;4934252;29;20123;-86
2022/03/25 02:27:52;;;;;;;42.45;34.40;;;2.20;99.90;;;;;;4949692;29;20114;-86
2022/03/25 02:30:19;;;;;;;44.45;35.75;;;2.20;99.90;;;;;;4985044;28;20459;-86
2022/03/25 02:32:45;;;;;;;42.45;34.63;;;2.20;99.90;;;;;;4951691;29;20047;-85
2022/03/25 02:35:11;;;;;;;41.25;34.83;;;2.10;99.90;;;;;;4952558;29;20061;-86
2022/03/25 02:37:36;;;;;;;44.60;36.03;;;2.10;99.90;;;;;;4952608;28;20038;-86
2022/03/25 02:40:03;;;;;;;46.53;37.03;;;2.10;99.90;;;;;;4983053;28;20091;-86
2022/03/25 02:42:28;;;;;;;46.10;36.33;;;2.10;99.90;;;;;;4966160;28;20039;-86
2022/03/25 02:44:54;;;;;;;45.63;35.08;;;2.10;99.90;;;;;;4944535;29;20049;-86
2022/03/25 02:47:20;;;;;;;44.83;35.47;;;2.00;99.90;;;;;;4952461;29;20038;-86
2022/03/25 02:49:46;;;;;;;52.33;38.83;;;2.00;99.90;;;;;;4942596;29;20057;-86
2022/03/25 02:52:11;;;;;;;48.05;37.85;;;2.00;99.90;;;;;;4978245;28;20043;-86
2022/03/25 02:54:37;;;;;;;45.22;35.83;;;1.90;99.90;;;;;;4930278;29;20118;-86
2022/03/25 02:57:03;;;;;;;45.22;35.47;;;1.90;99.90;;;;;;4946876;29;20054;-85
2022/03/25 02:59:28;;;;;;;47.15;37.10;;;1.90;99.90;;;;;;4949485;29;20726;-85
2022/03/25 03:01:54;;;;;;;56.30;39.88;;;1.80;99.90;;;;;;4927130;29;20102;-85
2022/03/25 03:04:19;;;;;;;51.97;39.03;;;1.80;99.90;;;;;;4943312;29;20051;-86
2022/03/25 03:06:45;;;;;;;51.75;38.38;;;1.80;99.90;;;;;;4983636;28;20043;-86
2022/03/25 03:09:11;;;;;;;52.20;37.80;;;1.80;99.90;;;;;;4952041;29;20050;-86
2022/03/25 03:11:37;;;;;;;52.95;38.95;;;1.80;99.90;;;;;;4944770;29;20039;-86
2022/03/25 03:14:04;;;;;;;55.28;39.10;;;1.80;99.90;;;;;;4935733;29;20422;-86
2022/03/25 03:16:30;;;;;;;53.00;38.25;;;1.70;99.90;;;;;;4930492;29;20406;-86
2022/03/25 03:18:56;;;;;;;52.25;39.20;;;1.80;99.90;;;;;;4944492;29;20521;-86
2022/03/25 03:21:24;;;;;;;57.97;39.97;;;1.70;99.90;;;;;;4965064;28;20469;-86
2022/03/25 03:23:53;;;;;;;53.55;39.58;;;1.60;99.90;;;;;;4936677;29;20142;-86
2022/03/25 03:26:20;;;;;;;48.70;37.33;;;1.70;99.90;;;;;;4936057;29;20039;-87
2022/03/25 03:28:46;;;;;;;50.72;38.28;;;1.60;99.90;;;;;;4934669;29;20094;-86
2022/03/25 03:31:12;;;;;;;53.83;40.88;;;1.60;99.90;;;;;;4967919;28;20042;-86
2022/03/25 03:33:38;;;;;;;50.90;37.80;;;1.50;99.90;;;;;;4971789;28;20505;-87
2022/03/25 03:36:04;;;;;;;51.65;37.00;;;1.50;99.90;;;;;;4953455;23;20062;-83
2022/03/25 03:38:30;;;;;;;50.40;37.60;;;1.50;99.90;;;;;;4947459;29;20057;-83
2022/03/25 03:40:55;;;;;;;42.92;33.80;;;1.40;99.90;;;;;;4932545;29;20043;-83
2022/03/25 03:43:21;;;;;;;41.05;33.47;;;1.40;99.90;;;;;;4938488;29;20047;-83
2022/03/25 03:45:47;;;;;;;41.83;34.78;;;1.40;99.90;;;;;;4951234;29;20046;-83
2022/03/25 03:48:12;;;;;;;45.70;34.97;;;1.40;99.90;;;;;;4951358;28;20062;-83
2022/03/25 03:50:38;;;;;;;41.60;33.78;;;1.30;99.90;;;;;;4951309;29;20527;-83
2022/03/25 03:53:04;;;;;;;39.30;32.38;;;1.30;99.90;;;;;;4951577;29;20065;-83
2022/03/25 03:55:30;;;;;;;38.70;32.75;;;1.30;99.90;;;;;;4949457;29;20051;-83
2022/03/25 03:57:56;;;;;;;45.08;36.05;;;1.30;99.90;;;;;;4935388;29;20315;-83
2022/03/25 04:00:24;;;;;;;49.80;38.13;;;1.30;99.90;;;;;;4950979;29;20047;-83
2022/03/25 04:02:50;;;;;;;41.42;32.45;;;1.30;99.90;;;;;;4950887;29;20051;-83
2022/03/25 04:05:16;;;;;;;41.25;32.33;;;1.30;99.90;;;;;;4951369;29;20054;-83
2022/03/25 04:07:43;;;;;;;44.05;33.83;;;1.30;99.90;;;;;;4950894;29;20049;-83
2022/03/25 04:10:09;;;;;;;46.83;34.78;;;1.30;99.90;;;;;;4949616;29;20046;-83
2022/03/25 04:12:35;;;;;;;47.42;34.72;;;1.30;99.90;;;;;;4954257;28;20038;-83
2022/03/25 04:15:02;;;;;;;45.67;36.63;;;1.30;99.90;;;;;;4954260;28;20047;-83
2022/03/25 04:17:27;;;;;;;45.90;37.10;;;1.30;99.90;;;;;;4950861;29;20450;-83
2022/03/25 04:19:53;;;;;;;48.78;37.60;;;1.30;99.90;;;;;;4950860;29;20122;-83
2022/03/25 04:22:19;;;;;;;60.10;42.33;;;1.30;99.90;;;;;;4934980;29;20552;-83
2022/03/25 04:24:44;;;;;;;63.65;44.85;;;1.20;99.90;;;;;;4949402;29;20047;-83
2022/03/25 04:27:10;;;;;;;68.80;46.10;;;1.10;99.90;;;;;;4951396;29;20050;-83
2022/03/25 04:29:36;;;;;;;104.40;48.35;;;1.20;99.90;;;;;;4950273;29;20035;-83
2022/03/25 04:32:01;;;;;;;114.68;48.35;;;1.20;99.90;;;;;;4950521;29;20163;-84
2022/03/25 04:34:27;;;;;;;84.93;48.63;;;1.10;99.90;;;;;;4934909;29;20110;-84
2022/03/25 04:36:53;;;;;;;68.43;45.72;;;1.10;99.90;;;;;;4950435;29;20390;-84
2022/03/25 04:39:18;;;;;;;69.30;46.00;;;1.10;99.90;;;;;;4950998;29;20044;-84
2022/03/25 04:41:44;;;;;;;70.75;47.15;;;1.10;99.90;;;;;;4950395;29;20062;-84
2022/03/25 04:44:09;;;;;;;70.45;45.35;;;1.10;99.90;;;;;;4933395;29;20173;-83
2022/03/25 04:46:35;;;;;;;65.30;45.85;;;1.00;99.90;;;;;;4950011;29;20050;-84
2022/03/25 04:49:01;;;;;;;64.25;45.35;;;1.00;99.90;;;;;;4951091;29;20114;-83
2022/03/25 04:51:27;;;;;;;54.55;40.38;;;1.10;99.90;;;;;;4950631;29;20043;-84
2022/03/25 04:53:52;;;;;;;53.72;38.47;;;1.00;99.90;;;;;;4944524;29;20490;-84
2022/03/25 04:56:18;;;;;;;52.85;37.10;;;1.10;99.90;;;;;;4915976;29;20087;-84
2022/03/25 04:58:44;;;;;;;61.03;39.63;;;1.00;99.90;;;;;;4941859;28;20489;-84
2022/03/25 05:01:10;;;;;;;51.97;38.78;;;1.00;99.90;;;;;;4951944;29;20035;-84
2022/03/25 05:03:35;;;;;;;53.83;40.60;;;1.00;99.90;;;;;;4954316;29;20079;-84
2022/03/25 05:06:01;;;;;;;55.10;39.30;;;1.00;99.90;;;;;;4964556;28;20039;-83
2022/03/25 05:08:27;;;;;;;54.25;39.80;;;1.00;99.90;;;;;;4956362;28;20050;-83
2022/03/25 05:10:52;;;;;;;49.40;36.85;;;0.90;99.90;;;;;;4958855;28;20122;-83
2022/03/25 05:13:18;;;;;;;49.30;38.10;;;0.90;99.90;;;;;;4954097;29;20039;-83
2022/03/25 05:15:44;;;;;;;49.90;38.10;;;0.90;99.90;;;;;;4954640;29;20082;-84
2022/03/25 05:18:10;;;;;;;49.70;37.78;;;0.90;99.90;;;;;;4952749;29;20043;-84
2022/03/25 05:20:36;;;;;;;50.90;36.22;;;0.90;99.90;;;;;;4938552;29;20043;-83
2022/03/25 05:23:02;;;;;;;50.80;36.92;;;0.90;99.90;;;;;;4954259;29;20380;-83
2022/03/25 05:25:27;;;;;;;45.95;34.17;;;0.90;99.90;;;;;;4952663;29;20039;-84
2022/03/25 05:27:55;;;;;;;44.72;34.72;;;0.90;99.90;;;;;;4941266;29;20039;-84
2022/03/25 05:30:24;;;;;;;44.13;33.53;;;0.90;99.90;;;;;;4953713;29;20382;-84
2022/03/25 05:32:50;;;;;;;41.92;33.47;;;0.90;99.90;;;;;;4953538;29;20047;-83
2022/03/25 05:35:16;;;;;;;43.42;34.25;;;0.90;99.90;;;;;;4953290;28;20074;-84
2022/03/25 05:37:42;;;;;;;44.13;33.88;;;0.90;99.90;;;;;;4956890;28;20460;-84
2022/03/25 05:40:09;;;;;;;43.60;34.00;;;0.90;99.90;;;;;;4940839;28;20062;-84
2022/03/25 05:42:35;;;;;;;39.80;31.77;;;0.90;99.90;;;;;;4956302;28;20093;-84
2022/03/25 05:45:03;;;;;;;40.90;32.08;;;0.90;99.90;;;;;;4940773;28;20046;-84
2022/03/25 05:47:28;;;;;;;40.40;31.70;;;0.90;99.90;;;;;;4956727;28;20039;-84
2022/03/25 05:49:54;;;;;;;42.75;31.83;;;0.90;99.90;;;;;;4954161;28;20435;-83
2022/03/25 05:52:19;;;;;;;38.22;30.77;;;1.00;99.90;;;;;;4957455;28;20125;-84
2022/03/25 05:54:45;;;;;;;38.38;31.83;;;1.00;99.90;;;;;;4956710;28;20074;-83
2022/03/25 05:57:11;;;;;;;37.65;30.55;;;1.10;99.90;;;;;;4956019;28;20053;-84
2022/03/25 05:59:37;;;;;;;34.97;30.10;;;1.10;99.90;;;;;;4970105;28;20042;-84
2022/03/25 06:02:03;;;;;;;36.78;29.85;;;1.20;99.90;;;;;;4940640;28;20412;-84
2022/03/25 06:04:28;;;;;;;34.75;30.98;;;1.20;99.90;;;;;;4956378;28;20089;-84
2022/03/25 06:06:54;;;;;;;34.97;30.92;;;1.20;99.90;;;;;;4939357;28;20448;-84
2022/03/25 06:09:20;;;;;;;35.70;29.90;;;1.30;99.90;;;;;;4940561;28;20452;-84
2022/03/25 06:11:45;;;;;;;34.30;30.60;;;1.40;99.90;;;;;;4968820;28;20381;-84
2022/03/25 06:14:11;;;;;;;38.10;30.65;;;1.50;99.90;;;;;;4964041;28;20092;-84
2022/03/25 06:16:39;;;;;;;38.30;32.22;;;1.70;99.90;;;;;;4936052;28;20049;-84
2022/03/25 06:19:05;;;;;;;38.08;32.25;;;1.80;99.90;;;;;;4940172;28;20084;-84
2022/03/25 06:21:30;;;;;;;38.75;33.05;;;2.20;99.90;;;;;;4932205;29;20118;-84
2022/03/25 06:23:56;;;;;;;37.75;31.48;;;2.50;99.90;;;;;;4968384;28;20039;-84
2022/03/25 06:26:21;;;;;;;36.55;31.58;;;2.80;99.90;;;;;;4950513;28;20035;-83
2022/03/25 06:28:47;;;;;;;38.65;32.45;;;3.20;99.90;;;;;;4956170;28;20039;-83
2022/03/25 06:31:13;;;;;;;42.15;34.35;;;3.50;99.90;;;;;;4955986;28;20047;-84
2022/03/25 06:33:39;;;;;;;42.33;34.47;;;4.20;99.90;;;;;;4939902;28;20034;-84
2022/03/25 06:36:05;;;;;;;39.97;32.42;;;4.90;99.90;;;;;;4958209;28;20063;-83
2022/03/25 06:38:31;;;;;;;42.58;33.17;;;5.60;99.90;;;;;;4946080;29;20126;-84
2022/03/25 06:40:56;;;;;;;39.47;32.47;;;6.20;99.90;;;;;;4954785;28;20055;-83
2022/03/25 06:43:22;;;;;;;37.42;32.22;;;6.50;99.90;;;;;;4955521;28;20051;-83
2022/03/25 06:45:47;;;;;;;38.78;31.52;;;7.00;99.90;;;;;;4939914;28;20046;-84
2022/03/25 06:48:13;;;;;;;39.85;33.80;;;7.30;99.90;;;;;;4939361;28;20404;-84
2022/03/25 06:50:39;;;;;;;38.10;32.90;;;7.50;99.90;;;;;;4955441;28;20042;-83
2022/03/25 06:53:05;;;;;;;38.45;31.23;;;8.00;99.90;;;;;;4955380;28;20043;-83
2022/03/25 06:55:31;;;;;;;37.85;32.30;;;8.50;99.90;;;;;;4953310;28;20113;-83
2022/03/25 06:57:57;;;;;;;37.72;32.15;;;9.20;99.90;;;;;;4955598;28;20045;-82
2022/03/25 07:00:24;;;;;;;43.10;35.55;;;10.10;99.30;;;;;;4939698;28;20043;-83
2022/03/25 07:02:50;;;;;;;39.05;34.00;;;10.20;99.00;;;;;;4954767;28;20093;-83
2022/03/25 07:05:16;;;;;;;37.47;33.10;;;10.70;98.00;;;;;;4954852;28;20125;-82
2022/03/25 07:07:42;;;;;;;39.20;34.25;;;10.90;97.10;;;;;;4937206;28;20138;-82
2022/03/25 07:10:09;;;;;;;40.17;33.53;;;11.20;97.10;;;;;;4953633;28;20094;-82
2022/03/25 07:12:40;;;;;;;45.28;38.17;;;11.40;96.60;;;;;;4960847;28;20429;-82
2022/03/25 07:15:07;;;;;;;43.88;36.05;;;11.80;96.40;;;;;;4955770;28;20078;-82
2022/03/25 07:17:33;;;;;;;42.05;35.90;;;12.00;96.30;;;;;;4955663;28;20074;-82
2022/03/25 07:20:00;;;;;;;46.88;39.38;;;12.20;95.90;;;;;;4955697;28;20047;-82
2022/03/25 07:22:26;;;;;;;48.58;38.08;;;12.50;96.40;;;;;;4940943;28;20573;-82
2022/03/25 07:24:52;;;;;;;50.80;38.28;;;12.60;96.60;;;;;;4955006;28;20041;-82
2022/03/25 07:27:18;;;;;;;48.53;37.75;;;13.10;96.80;;;;;;4934946;29;20081;-81
2022/03/25 07:29:43;;;;;;;48.53;41.65;;;13.30;96.40;;;;;;4952003;29;20043;-81
2022/03/25 07:32:09;;;;;;;46.83;40.03;;;13.50;96.10;;;;;;4939041;28;20038;-81
2022/03/25 07:34:36;;;;;;;48.47;39.78;;;13.70;95.80;;;;;;4954010;28;20082;-82
2022/03/25 07:37:03;;;;;;;48.38;40.20;;;13.80;96.20;;;;;;4953826;28;20077;-81
2022/03/25 07:39:29;;;;;;;49.40;41.38;;;14.20;96.10;;;;;;4952173;28;20042;-83
2022/03/25 07:41:55;;;;;;;45.70;39.30;;;13.20;96.60;;;;;;4946612;29;20054;-83
2022/03/25 07:44:20;;;;;;;52.50;41.13;;;13.00;98.00;;;;;;4935586;29;20138;-83
2022/03/25 07:46:46;;;;;;;45.17;37.58;;;12.50;98.90;;;;;;4948999;28;20078;-83
2022/03/25 07:49:12;;;;;;;46.67;38.58;;;12.00;99.90;;;;;;4938768;28;20042;-82
2022/03/25 07:51:37;;;;;;;49.03;39.22;;;11.10;99.90;;;;;;4954944;28;20043;-82
2022/03/25 07:54:03;;;;;;;49.28;39.50;;;10.40;99.90;;;;;;4953981;28;20041;-81
2022/03/25 07:56:28;;;;;;;49.17;38.67;;;9.60;99.90;;;;;;4953349;28;20151;-81
2022/03/25 07:58:54;;;;;;;50.22;39.67;;;9.60;99.90;;;;;;4960127;28;20100;-82
2022/03/25 08:01:19;;;;;;;46.92;37.28;;;9.20;99.90;;;;;;4937809;28;20146;-82
2022/03/25 08:03:45;;;;;;;50.97;38.10;;;9.10;99.90;;;;;;4954371;28;20070;-81
2022/03/25 08:06:14;;;;;;;50.10;38.13;;;9.00;99.90;;;;;;4954682;28;20042;-81
2022/03/25 08:08:40;;;;;;;48.70;36.67;;;9.00;99.90;;;;;;4947484;28;20074;-81
2022/03/25 08:11:06;;;;;;;45.35;35.65;;;9.10;99.90;;;;;;4962009;28;20499;-81
2022/03/25 08:13:32;;;;;;;46.28;35.78;;;9.20;99.90;;;;;;4947159;28;20050;-81
2022/03/25 08:15:58;;;;;;;42.25;33.83;;;9.30;99.90;;;;;;4941185;29;20129;-81
2022/03/25 08:18:24;;;;;;;44.25;34.17;;;9.40;99.90;;;;;;4943880;28;20071;-82
2022/03/25 08:20:51;;;;;;;42.28;34.53;;;9.50;99.90;;;;;;4940056;28;20089;-81
2022/03/25 08:28:50;;;;;;;38.28;29.45;;;9.90;99.90;;;;;;4953228;28;20043;-81
2022/03/25 08:31:16;;;;;;;37.83;27.90;;;10.10;99.90;;;;;;4954143;28;20509;-81
2022/03/25 08:33:42;;;;;;;39.45;27.58;;;10.10;99.90;;;;;;4937869;28;20042;-81
2022/03/25 08:36:08;;;;;;;34.50;26.95;;;10.10;99.90;;;;;;4935401;29;20106;-81
2022/03/25 08:38:34;;;;;;;33.58;24.25;;;10.20;99.90;;;;;;4953385;28;20157;-81
2022/03/25 08:40:59;;;;;;;35.40;28.02;;;10.30;99.90;;;;;;4934886;28;20050;-80
2022/03/25 08:43:26;;;;;;;36.00;26.30;;;10.40;99.90;;;;;;4955383;28;20408;-80
2022/03/25 08:45:52;;;;;;;35.95;27.50;;;10.50;99.90;;;;;;4952065;28;20043;-81
2022/03/25 08:48:17;;;;;;;31.55;24.10;;;10.60;99.90;;;;;;4954267;28;20089;-81
2022/03/25 08:50:43;;;;;;;36.53;26.83;;;10.90;99.90;;;;;;4953509;28;20125;-80
2022/03/25 08:53:09;;;;;;;31.35;24.45;;;10.80;99.90;;;;;;4953748;28;20509;-80
2022/03/25 08:55:34;;;;;;;31.08;23.05;;;11.00;99.90;;;;;;4952052;28;20125;-81
2022/03/25 08:58:00;;;;;;;27.58;22.42;;;11.30;99.80;;;;;;4953558;28;20046;-81
2022/03/25 09:00:25;;;;;;;31.65;23.80;;;11.30;99.60;;;;;;4937410;28;20062;-81
2022/03/25 09:02:51;;;;;;;29.98;23.95;;;11.50;99.10;;;;;;4953811;28;20049;-81
2022/03/25 09:05:17;;;;;;;32.95;25.17;;;11.70;98.90;;;;;;4948587;28;20491;-82
2022/03/25 09:07:43;;;;;;;31.35;24.50;;;11.90;98.10;;;;;;4950897;28;20149;-83
2022/03/25 09:10:12;;;;;;;32.72;25.15;;;11.90;97.70;;;;;;4951481;28;20038;-84
2022/03/25 09:12:38;;;;;;;36.65;27.90;;;11.90;96.10;;;;;;4953248;28;20034;-84
2022/03/25 09:15:05;;;;;;;34.30;25.90;;;11.70;95.60;;;;;;4952406;28;20049;-77
2022/03/25 09:17:31;;;;;;;32.47;25.50;;;11.70;96.60;;;;;;4953881;28;20050;-77
2022/03/25 09:19:57;;;;;;;35.80;27.75;;;11.60;97.30;;;;;;4943076;29;20043;-77
2022/03/25 09:22:23;;;;;;;33.03;27.08;;;11.70;97.70;;;;;;4934751;29;20043;-78
2022/03/25 09:24:49;;;;;;;36.20;25.77;;;11.60;97.30;;;;;;4934516;29;20074;-77
2022/03/25 09:27:15;;;;;;;35.55;27.05;;;11.80;98.00;;;;;;4934499;29;20043;-77
2022/03/25 09:29:40;;;;;;;35.38;27.42;;;11.80;97.00;;;;;;4934469;29;20039;-77
2022/03/25 09:32:07;;;;;;;33.03;26.35;;;12.00;97.50;;;;;;4934441;29;20102;-77
2022/03/25 09:37:17;;;;;;;38.13;26.17;;;12.10;96.10;;;;;;4941351;28;20205;-77
2022/03/25 09:39:43;;;;;;;35.67;26.40;;;12.30;96.60;;;;;;4937701;28;20532;-77
2022/03/25 09:42:09;;;;;;;32.10;24.30;;;12.50;96.60;;;;;;4953517;28;20101;-77
2022/03/25 09:44:35;;;;;;;37.50;25.65;;;12.70;96.30;;;;;;4953536;28;20212;-77
2022/03/25 09:47:01;;;;;;;35.47;24.65;;;12.90;96.20;;;;;;4956064;28;20054;-77
2022/03/25 09:49:27;;;;;;;34.72;25.05;;;12.90;94.50;;;;;;4956955;28;20035;-77
2022/03/25 09:51:52;;;;;;;35.25;26.52;;;13.00;95.60;;;;;;4936151;29;20035;-77
2022/03/25 09:54:19;;;;;;;32.53;22.33;;;13.20;95.80;;;;;;4938147;29;20066;-77
2022/03/25 09:56:44;;;;;;;29.52;23.35;;;13.10;92.30;;;;;;4937422;29;20058;-77
2022/03/25 09:59:16;;;;;;;31.33;21.65;;;13.10;92.70;;;;;;4940752;28;20046;-77
2022/03/25 10:01:41;;;;;;;30.77;23.02;;;13.20;90.90;;;;;;4968647;28;20053;-77
2022/03/25 10:04:07;;;;;;;31.42;23.77;;;13.10;92.00;;;;;;4956717;28;20401;-77
2022/03/25 10:06:46;;;;;;;36.67;23.35;;;13.20;91.50;;;;;;4956556;28;20153;-77
2022/03/25 10:09:21;;;;;;;28.92;21.83;;;13.20;92.60;;;;;;4973029;28;20050;-77
2022/03/25 10:11:47;;;;;;;29.35;20.80;;;13.20;92.10;;;;;;4985491;28;20125;-77
2022/03/25 10:14:27;;;;;;;29.23;21.83;;;13.30;91.30;;;;;;4975775;28;20061;-77
2022/03/25 10:16:53;;;;;;;27.27;19.70;;;13.30;91.10;;;;;;4973348;28;20069;-77
2022/03/25 10:19:21;;;;;;;29.88;20.67;;;13.40;92.10;;;;;;4956430;28;20046;-77
2022/03/25 10:22:02;;;;;;;24.50;20.58;;;13.50;90.60;;;;;;4972480;28;20050;-77
2022/03/25 10:24:49;;;;;;;25.60;17.63;;;13.70;91.60;;;;;;4938776;28;20051;-78
2022/03/25 10:27:29;;;;;;;28.08;17.55;;;13.60;82.30;;;;;;4956073;28;20046;-77
2022/03/25 10:29:56;;;;;;;25.65;18.52;;;13.80;77.80;;;;;;4956344;28;20038;-77
2022/03/25 10:32:25;;;;;;;22.00;15.48;;;13.60;76.90;;;;;;4972432;28;20034;-78
2022/03/25 10:35:04;;;;;;;24.95;17.75;;;13.80;82.20;;;;;;4956247;28;20271;-77
2022/03/25 10:37:29;;;;;;;28.67;19.05;;;14.00;75.90;;;;;;4955759;28;20097;-77
2022/03/25 10:39:55;;;;;;;29.08;18.52;;;14.00;75.40;;;;;;4951671;28;20082;-79
2022/03/25 10:42:21;;;;;;;25.45;17.83;;;14.10;76.80;;;;;;4931844;28;20569;-79
2022/03/25 10:44:47;;;;;;;27.02;17.10;;;14.10;73.10;;;;;;4952135;28;20045;-79
2022/03/25 10:47:15;;;;;;;26.63;17.52;;;14.10;71.80;;;;;;4952511;28;20031;-79
2022/03/25 10:49:46;;;;;;;25.27;17.85;;;14.30;75.90;;;;;;4956145;28;20723;-79
2022/03/25 10:52:34;;;;;;;26.55;18.48;;;14.30;74.10;;;;;;4955471;28;20035;-79
2022/03/25 10:55:20;;;;;;;24.95;17.33;;;14.40;73.00;;;;;;4930322;29;20043;-78
2022/03/25 10:57:50;;;;;;;23.02;16.35;;;14.50;68.20;;;;;;4935501;29;20077;-78
2022/03/25 11:00:16;;;;;;;23.00;16.42;;;14.60;74.00;;;;;;4950735;28;20043;-78
2022/03/25 11:02:43;;;;;;;26.88;17.45;;;14.90;76.10;;;;;;4956047;28;20047;-76
2022/03/25 11:05:10;;;;;;;24.30;16.83;;;15.00;76.40;;;;;;4952631;28;20043;-78
2022/03/25 11:07:37;;;;;;;26.27;16.85;;;15.10;74.40;;;;;;4931372;28;20038;-78
2022/03/25 11:10:03;;;;;;;22.00;15.75;;;15.20;71.80;;;;;;4952586;28;20038;-79
2022/03/25 11:12:30;;;;;;;25.35;18.17;;;15.20;71.80;;;;;;4941523;28;20374;-78
2022/03/25 11:14:58;;;;;;;23.15;16.00;;;14.80;64.00;;;;;;4948788;28;20138;-78
2022/03/25 11:17:26;;;;;;;23.73;15.38;;;14.80;64.40;;;;;;4951761;28;20483;-78
2022/03/25 11:19:53;;;;;;;23.40;16.50;;;14.80;66.50;;;;;;4953033;28;20050;-78
2022/03/25 11:22:22;;;;;;;23.05;16.48;;;14.90;66.30;;;;;;4949591;28;20038;-78
2022/03/25 11:24:53;;;;;;;24.85;15.98;;;14.90;63.90;;;;;;4944153;28;20043;-78
2022/03/25 11:27:21;;;;;;;23.13;16.10;;;15.10;65.20;;;;;;4949941;28;20043;-78
2022/03/25 11:29:51;;;;;;;21.00;14.98;;;15.30;70.50;;;;;;4953957;28;20429;-78
2022/03/25 11:32:17;;;;;;;23.05;15.48;;;15.50;68.20;;;;;;4951850;28;20042;-78
2022/03/25 11:35:06;;;;;;;20.42;15.15;;;15.70;70.10;;;;;;4953063;28;20050;-78
2022/03/25 11:37:34;;;;;;;23.13;15.70;;;15.80;64.20;;;;;;4934563;28;20059;-78
2022/03/25 11:40:20;;;;;;;21.50;14.38;;;15.70;60.90;;;;;;4953673;28;20066;-78
2022/03/25 11:42:50;;;;;;;22.27;14.55;;;15.60;63.50;;;;;;4940820;28;20062;-78
2022/03/25 11:45:22;;;;;;;21.45;14.18;;;15.70;62.20;;;;;;4951095;28;20049;-78
2022/03/25 11:48:00;;;;;;;20.73;14.07;;;15.80;63.00;;;;;;4960570;28;20042;-78
2022/03/25 11:50:38;;;;;;;24.13;14.35;;;15.90;64.20;;;;;;4937353;28;20480;-78
2022/03/25 11:53:10;;;;;;;24.00;15.73;;;15.90;62.50;;;;;;4949943;28;20413;-79
2022/03/25 11:55:59;;;;;;;31.60;18.33;;;16.00;62.40;;;;;;4950998;28;20050;-79
2022/03/25 11:58:24;;;;;;;25.63;16.88;;;15.90;64.00;;;;;;4942275;28;20035;-78
2022/03/25 12:00:54;;;;;;;24.88;15.90;;;16.00;62.10;;;;;;4948416;28;20495;-79
2022/03/25 12:03:20;;;;;;;24.55;16.55;;;15.90;61.90;;;;;;4938184;29;20064;-77
2022/03/25 12:05:59;;;;;;;26.75;18.60;;;16.00;62.60;;;;;;4934585;28;20422;-77
2022/03/25 12:08:31;;;;;;;24.17;16.98;;;15.90;61.00;;;;;;4939056;28;20081;-77
2022/03/25 12:10:59;;;;;;;25.08;16.58;;;16.00;64.90;;;;;;4965024;28;20034;-77
2022/03/25 12:13:51;;;;;;;24.52;17.17;;;16.00;62.20;;;;;;4971503;28;20038;-77
2022/03/25 12:16:47;;;;;;;24.50;17.92;;;15.90;60.80;;;;;;4933586;28;20047;-77
2022/03/25 12:19:25;;;;;;;26.30;18.70;;;15.80;61.80;;;;;;4939577;28;20397;-77
2022/03/25 12:21:51;;;;;;;27.15;19.13;;;16.00;62.90;;;;;;4953942;28;20105;-76
2022/03/25 12:24:19;;;;;;;29.40;18.92;;;15.90;61.80;;;;;;4955016;28;20035;-77
2022/03/25 12:26:44;;;;;;;27.58;18.67;;;16.00;64.20;;;;;;4955631;28;20093;-76
2022/03/25 12:29:10;;;;;;;31.08;18.55;;;16.10;62.10;;;;;;4955412;28;20039;-76
2022/03/25 12:31:37;;;;;;;25.88;18.52;;;16.00;60.90;;;;;;4946055;28;20130;-77
2022/03/25 12:34:05;;;;;;;26.52;18.48;;;15.90;59.30;;;;;;4946034;28;20039;-77
2022/03/25 12:36:48;;;;;;;28.10;18.20;;;15.90;58.30;;;;;;4969507;28;20157;-76
2022/03/25 12:39:14;;;;;;;26.10;17.90;;;15.90;57.00;;;;;;4954326;28;20129;-76
2022/03/25 12:41:47;;;;;;;27.10;17.90;;;15.80;57.70;;;;;;4954560;28;20126;-77